sensor_id;sensor_type;location;lat;lon;timestamp;temperature;humidity
40822;DHT22;26542;50.836;5.356;2023-04-01T00:00:55;10.20;99.90
40822;DHT22;26542;50.836;5.356;2023-04-01T00:03:24;10.20;99.90
40822;DHT22;26542;50.836;5.356;2023-04-01T00:05:50;10.20;99.90
40822;DHT22;26542;50.836;5.356;2023-04-01T00:08:16;10.20;99.90
40822;DHT22;26542;50.836;5.356;2023-04-01T00:10:42;10.20;99.90
40822;DHT22;26542;50.836;5.356;2023-04-01T00:13:08;10.20;99.90
40822;DHT22;26542;50.836;5.356;2023-04-01T00:15:34;10.20;99.90
40822;DHT22;26542;50.836;5.356;2023-04-01T00:18:00;10.20;99.90
40822;DHT22;26542;50.836;5.356;2023-04-01T00:20:26;10.20;99.90
40822;DHT22;26542;50.836;5.356;2023-04-01T00:22:52;10.10;99.90
40822;DHT22;26542;50.836;5.356;2023-04-01T00:25:18;10.20;99.90
40822;DHT22;26542;50.836;5.356;2023-04-01T00:27:44;10.20;99.90
40822;DHT22;26542;50.836;5.356;2023-04-01T00:30:10;10.20;99.90
40822;DHT22;26542;50.836;5.356;2023-04-01T00:32:39;10.20;99.90
40822;DHT22;26542;50.836;5.356;2023-04-01T00:35:06;10.20;99.90
40822;DHT22;26542;50.836;5.356;2023-04-01T00:37:35;10.20;99.90
40822;DHT22;26542;50.836;5.356;2023-04-01T00:40:01;10.30;99.90
40822;DHT22;26542;50.836;5.356;2023-04-01T00:42:27;10.30;99.90
40822;DHT22;26542;50.836;5.356;2023-04-01T00:44:55;10.30;99.90
40822;DHT22;26542;50.836;5.356;2023-04-01T00:47:22;10.30;99.90
40822;DHT22;26542;50.836;5.356;2023-04-01T00:49:50;10.20;99.90
40822;DHT22;26542;50.836;5.356;2023-04-01T00:52:22;10.10;99.90
40822;DHT22;26542;50.836;5.356;2023-04-01T00:54:53;10.20;99.90
40822;DHT22;26542;50.836;5.356;2023-04-01T00:57:25;10.20;99.90
40822;DHT22;26542;50.836;5.356;2023-04-01T00:59:54;10.20;99.90
40822;DHT22;26542;50.836;5.356;2023-04-01T01:02:21;10.20;99.90
40822;DHT22;26542;50.836;5.356;2023-04-01T01:04:47;10.20;99.90
40822;DHT22;26542;50.836;5.356;2023-04-01T01:16:04;10.20;99.90
40822;DHT22;26542;50.836;5.356;2023-04-01T01:18:53;10.10;99.90
40822;DHT22;26542;50.836;5.356;2023-04-01T01:22:01;10.20;99.90
40822;DHT22;26542;50.836;5.356;2023-04-01T01:24:54;10.10;99.90
40822;DHT22;26542;50.836;5.356;2023-04-01T01:27:22;10.20;99.90
40822;DHT22;26542;50.836;5.356;2023-04-01T01:35:49;10.10;99.90
40822;DHT22;26542;50.836;5.356;2023-04-01T01:38:24;10.10;99.90
40822;DHT22;26542;50.836;5.356;2023-04-01T01:40:52;10.10;99.90
40822;DHT22;26542;50.836;5.356;2023-04-01T01:43:29;10.10;99.90
40822;DHT22;26542;50.836;5.356;2023-04-01T01:45:58;10.20;99.90
40822;DHT22;26542;50.836;5.356;2023-04-01T01:48:26;10.10;99.90
40822;DHT22;26542;50.836;5.356;2023-04-01T01:50:53;10.10;99.90
40822;DHT22;26542;50.836;5.356;2023-04-01T01:53:19;10.10;99.90
40822;DHT22;26542;50.836;5.356;2023-04-01T01:55:46;10.10;99.90
40822;DHT22;26542;50.836;5.356;2023-04-01T01:58:17;10.10;99.90
40822;DHT22;26542;50.836;5.356;2023-04-01T02:00:49;10.10;99.90
40822;DHT22;26542;50.836;5.356;2023-04-01T02:03:16;10.00;99.90
40822;DHT22;26542;50.836;5.356;2023-04-01T02:05:43;10.10;99.90
40822;DHT22;26542;50.836;5.356;2023-04-01T02:08:14;10.10;99.90
40822;DHT22;26542;50.836;5.356;2023-04-01T02:10:46;10.10;99.90
40822;DHT22;26542;50.836;5.356;2023-04-01T02:13:24;10.20;99.90
40822;DHT22;26542;50.836;5.356;2023-04-01T02:15:55;10.20;99.90
40822;DHT22;26542;50.836;5.356;2023-04-01T02:18:22;10.20;99.90
40822;DHT22;26542;50.836;5.356;2023-04-01T02:20:49;10.20;99.90
40822;DHT22;26542;50.836;5.356;2023-04-01T02:23:15;10.30;99.90
40822;DHT22;26542;50.836;5.356;2023-04-01T02:25:42;10.20;99.90
40822;DHT22;26542;50.836;5.356;2023-04-01T02:28:10;10.20;99.90
40822;DHT22;26542;50.836;5.356;2023-04-01T02:30:38;10.20;99.90
40822;DHT22;26542;50.836;5.356;2023-04-01T02:33:06;10.10;99.90
40822;DHT22;26542;50.836;5.356;2023-04-01T02:35:34;10.10;99.90
40822;DHT22;26542;50.836;5.356;2023-04-01T02:38:01;10.20;99.90
40822;DHT22;26542;50.836;5.356;2023-04-01T02:40:27;10.10;99.90
40822;DHT22;26542;50.836;5.356;2023-04-01T02:42:52;10.10;99.90
40822;DHT22;26542;50.836;5.356;2023-04-01T02:45:18;10.10;99.90
40822;DHT22;26542;50.836;5.356;2023-04-01T02:47:44;10.20;99.90
40822;DHT22;26542;50.836;5.356;2023-04-01T02:50:10;10.20;99.90
40822;DHT22;26542;50.836;5.356;2023-04-01T02:52:36;10.10;99.90
40822;DHT22;26542;50.836;5.356;2023-04-01T02:55:03;10.20;99.90
40822;DHT22;26542;50.836;5.356;2023-04-01T02:57:29;10.20;99.90
40822;DHT22;26542;50.836;5.356;2023-04-01T02:59:55;10.20;99.90
40822;DHT22;26542;50.836;5.356;2023-04-01T03:02:20;10.20;99.90
40822;DHT22;26542;50.836;5.356;2023-04-01T03:04:46;10.20;99.90
40822;DHT22;26542;50.836;5.356;2023-04-01T03:07:12;10.20;99.90
40822;DHT22;26542;50.836;5.356;2023-04-01T03:09:38;10.30;99.90
40822;DHT22;26542;50.836;5.356;2023-04-01T03:12:04;10.30;99.90
40822;DHT22;26542;50.836;5.356;2023-04-01T03:14:30;10.20;99.90
40822;DHT22;26542;50.836;5.356;2023-04-01T03:16:55;10.20;99.90
40822;DHT22;26542;50.836;5.356;2023-04-01T03:19:21;10.20;99.90
40822;DHT22;26542;50.836;5.356;2023-04-01T03:21:47;10.20;99.90
40822;DHT22;26542;50.836;5.356;2023-04-01T03:24:12;10.30;99.90
40822;DHT22;26542;50.836;5.356;2023-04-01T03:26:38;10.40;99.90
40822;DHT22;26542;50.836;5.356;2023-04-01T03:29:04;10.30;99.90
40822;DHT22;26542;50.836;5.356;2023-04-01T03:31:30;10.30;99.90
40822;DHT22;26542;50.836;5.356;2023-04-01T03:33:56;10.30;99.90
40822;DHT22;26542;50.836;5.356;2023-04-01T03:36:21;10.20;99.90
40822;DHT22;26542;50.836;5.356;2023-04-01T03:38:47;10.20;99.90
40822;DHT22;26542;50.836;5.356;2023-04-01T03:41:17;10.20;99.90
40822;DHT22;26542;50.836;5.356;2023-04-01T03:43:43;10.20;99.90
40822;DHT22;26542;50.836;5.356;2023-04-01T03:46:09;10.30;99.90
40822;DHT22;26542;50.836;5.356;2023-04-01T03:48:35;10.30;99.90
40822;DHT22;26542;50.836;5.356;2023-04-01T03:51:01;10.30;99.90
40822;DHT22;26542;50.836;5.356;2023-04-01T03:53:26;10.30;99.90
40822;DHT22;26542;50.836;5.356;2023-04-01T03:55:52;10.20;99.90
40822;DHT22;26542;50.836;5.356;2023-04-01T03:58:18;10.20;99.90
40822;DHT22;26542;50.836;5.356;2023-04-01T04:00:44;10.20;99.90
40822;DHT22;26542;50.836;5.356;2023-04-01T04:03:10;10.10;99.90
40822;DHT22;26542;50.836;5.356;2023-04-01T04:05:36;10.20;99.90
40822;DHT22;26542;50.836;5.356;2023-04-01T04:08:02;10.10;99.90
40822;DHT22;26542;50.836;5.356;2023-04-01T04:10:28;10.20;99.90
40822;DHT22;26542;50.836;5.356;2023-04-01T04:12:55;10.10;99.90
40822;DHT22;26542;50.836;5.356;2023-04-01T04:15:21;10.00;99.90
40822;DHT22;26542;50.836;5.356;2023-04-01T04:17:47;10.00;99.90
40822;DHT22;26542;50.836;5.356;2023-04-01T04:20:13;10.00;99.90
40822;DHT22;26542;50.836;5.356;2023-04-01T04:22:38;10.10;99.90
40822;DHT22;26542;50.836;5.356;2023-04-01T04:25:05;10.00;99.90
40822;DHT22;26542;50.836;5.356;2023-04-01T04:27:34;10.00;99.90
40822;DHT22;26542;50.836;5.356;2023-04-01T04:30:00;10.00;99.90
40822;DHT22;26542;50.836;5.356;2023-04-01T04:32:26;10.00;99.90
40822;DHT22;26542;50.836;5.356;2023-04-01T04:34:52;10.00;99.90
40822;DHT22;26542;50.836;5.356;2023-04-01T04:37:17;9.90;99.90
40822;DHT22;26542;50.836;5.356;2023-04-01T04:39:43;9.90;99.90
40822;DHT22;26542;50.836;5.356;2023-04-01T04:42:09;10.10;99.90
40822;DHT22;26542;50.836;5.356;2023-04-01T04:44:35;10.00;99.90
40822;DHT22;26542;50.836;5.356;2023-04-01T04:47:01;10.00;99.90
40822;DHT22;26542;50.836;5.356;2023-04-01T04:49:27;10.10;99.90
40822;DHT22;26542;50.836;5.356;2023-04-01T04:51:52;10.10;99.90
40822;DHT22;26542;50.836;5.356;2023-04-01T04:54:18;10.10;99.90
40822;DHT22;26542;50.836;5.356;2023-04-01T04:56:44;10.10;99.90
40822;DHT22;26542;50.836;5.356;2023-04-01T04:59:10;10.10;99.90
40822;DHT22;26542;50.836;5.356;2023-04-01T05:01:35;10.00;99.90
40822;DHT22;26542;50.836;5.356;2023-04-01T05:04:01;10.00;99.90
40822;DHT22;26542;50.836;5.356;2023-04-01T05:06:27;10.00;99.90
40822;DHT22;26542;50.836;5.356;2023-04-01T05:08:55;10.10;99.90
40822;DHT22;26542;50.836;5.356;2023-04-01T05:11:22;10.10;99.90
40822;DHT22;26542;50.836;5.356;2023-04-01T05:13:48;10.10;99.90
40822;DHT22;26542;50.836;5.356;2023-04-01T05:16:17;10.00;99.90
40822;DHT22;26542;50.836;5.356;2023-04-01T05:18:43;10.00;99.90
40822;DHT22;26542;50.836;5.356;2023-04-01T05:21:10;10.00;99.90
40822;DHT22;26542;50.836;5.356;2023-04-01T05:23:36;10.10;99.90
40822;DHT22;26542;50.836;5.356;2023-04-01T05:26:07;10.00;99.90
40822;DHT22;26542;50.836;5.356;2023-04-01T05:28:33;10.00;99.90
40822;DHT22;26542;50.836;5.356;2023-04-01T05:31:00;9.90;99.90
40822;DHT22;26542;50.836;5.356;2023-04-01T05:33:26;9.90;99.90
40822;DHT22;26542;50.836;5.356;2023-04-01T05:35:53;9.90;99.90
40822;DHT22;26542;50.836;5.356;2023-04-01T05:38:19;9.90;99.90
40822;DHT22;26542;50.836;5.356;2023-04-01T05:40:45;9.90;99.90
40822;DHT22;26542;50.836;5.356;2023-04-01T05:43:11;10.00;99.90
40822;DHT22;26542;50.836;5.356;2023-04-01T05:45:37;9.90;99.90
40822;DHT22;26542;50.836;5.356;2023-04-01T05:48:03;9.90;99.90
40822;DHT22;26542;50.836;5.356;2023-04-01T05:50:29;9.90;99.90
40822;DHT22;26542;50.836;5.356;2023-04-01T05:52:55;9.80;99.90
40822;DHT22;26542;50.836;5.356;2023-04-01T05:55:20;9.90;99.90
40822;DHT22;26542;50.836;5.356;2023-04-01T05:57:46;9.80;99.90
40822;DHT22;26542;50.836;5.356;2023-04-01T06:00:15;9.80;99.90
40822;DHT22;26542;50.836;5.356;2023-04-01T06:02:41;9.80;99.90
40822;DHT22;26542;50.836;5.356;2023-04-01T06:05:16;9.80;99.90
40822;DHT22;26542;50.836;5.356;2023-04-01T06:07:42;9.80;99.90
40822;DHT22;26542;50.836;5.356;2023-04-01T06:10:16;9.90;99.90
40822;DHT22;26542;50.836;5.356;2023-04-01T06:12:55;9.90;99.90
40822;DHT22;26542;50.836;5.356;2023-04-01T06:15:25;9.90;99.90
40822;DHT22;26542;50.836;5.356;2023-04-01T06:18:27;9.90;99.90
40822;DHT22;26542;50.836;5.356;2023-04-01T06:23:51;9.90;99.90
40822;DHT22;26542;50.836;5.356;2023-04-01T06:29:11;10.00;99.90
40822;DHT22;26542;50.836;5.356;2023-04-01T06:34:18;9.90;99.90
40822;DHT22;26542;50.836;5.356;2023-04-01T06:37:11;10.00;99.90
40822;DHT22;26542;50.836;5.356;2023-04-01T06:42:34;10.00;99.90
40822;DHT22;26542;50.836;5.356;2023-04-01T06:45:08;10.00;99.90
40822;DHT22;26542;50.836;5.356;2023-04-01T06:56:02;9.90;99.90
40822;DHT22;26542;50.836;5.356;2023-04-01T06:58:55;9.90;99.90
40822;DHT22;26542;50.836;5.356;2023-04-01T07:01:24;10.00;99.90
40822;DHT22;26542;50.836;5.356;2023-04-01T07:04:00;10.00;99.90
40822;DHT22;26542;50.836;5.356;2023-04-01T07:09:21;10.10;99.90
40822;DHT22;26542;50.836;5.356;2023-04-01T07:11:48;10.10;99.90
40822;DHT22;26542;50.836;5.356;2023-04-01T07:14:30;10.00;99.90
40822;DHT22;26542;50.836;5.356;2023-04-01T07:17:15;10.00;99.90
40822;DHT22;26542;50.836;5.356;2023-04-01T07:19:47;10.00;99.90
40822;DHT22;26542;50.836;5.356;2023-04-01T07:24:44;10.00;99.90
40822;DHT22;26542;50.836;5.356;2023-04-01T07:27:13;9.90;99.90
40822;DHT22;26542;50.836;5.356;2023-04-01T07:29:39;9.90;99.90
40822;DHT22;26542;50.836;5.356;2023-04-01T07:43:15;10.00;99.90
40822;DHT22;26542;50.836;5.356;2023-04-01T07:48:42;10.00;99.90
40822;DHT22;26542;50.836;5.356;2023-04-01T07:54:04;10.10;99.90
40822;DHT22;26542;50.836;5.356;2023-04-01T07:57:04;10.00;99.90
40822;DHT22;26542;50.836;5.356;2023-04-01T08:02:55;10.00;99.90
40822;DHT22;26542;50.836;5.356;2023-04-01T08:05:32;10.10;99.90
40822;DHT22;26542;50.836;5.356;2023-04-01T08:11:08;10.20;99.90
40822;DHT22;26542;50.836;5.356;2023-04-01T08:17:04;10.10;99.90
40822;DHT22;26542;50.836;5.356;2023-04-01T08:22:00;10.10;99.90
40822;DHT22;26542;50.836;5.356;2023-04-01T08:24:33;10.10;99.90
40822;DHT22;26542;50.836;5.356;2023-04-01T08:27:06;10.10;99.90
40822;DHT22;26542;50.836;5.356;2023-04-01T08:30:02;10.10;99.90
40822;DHT22;26542;50.836;5.356;2023-04-01T08:32:36;10.10;99.90
40822;DHT22;26542;50.836;5.356;2023-04-01T08:37:55;10.20;99.90
40822;DHT22;26542;50.836;5.356;2023-04-01T08:59:52;10.30;99.90
40822;DHT22;26542;50.836;5.356;2023-04-01T09:25:36;10.30;99.90
40822;DHT22;26542;50.836;5.356;2023-04-01T09:28:33;10.30;99.90
40822;DHT22;26542;50.836;5.356;2023-04-01T09:31:31;10.40;99.90
40822;DHT22;26542;50.836;5.356;2023-04-01T09:44:58;10.90;99.90
40822;DHT22;26542;50.836;5.356;2023-04-01T09:47:44;10.90;99.90
40822;DHT22;26542;50.836;5.356;2023-04-01T09:50:38;10.90;99.90
40822;DHT22;26542;50.836;5.356;2023-04-01T09:53:18;11.00;99.90
40822;DHT22;26542;50.836;5.356;2023-04-01T10:02:27;10.90;99.90
40822;DHT22;26542;50.836;5.356;2023-04-01T10:18:56;10.80;99.90
40822;DHT22;26542;50.836;5.356;2023-04-01T10:22:01;10.80;99.90
40822;DHT22;26542;50.836;5.356;2023-04-01T10:27:59;10.80;99.90
40822;DHT22;26542;50.836;5.356;2023-04-01T10:41:14;10.90;99.90
40822;DHT22;26542;50.836;5.356;2023-04-01T11:06:54;11.20;99.90
40822;DHT22;26542;50.836;5.356;2023-04-01T11:18:00;11.10;99.90
40822;DHT22;26542;50.836;5.356;2023-04-01T11:20:42;11.10;99.90
40822;DHT22;26542;50.836;5.356;2023-04-01T11:28:55;11.20;99.90
40822;DHT22;26542;50.836;5.356;2023-04-01T11:31:37;11.30;99.90
40822;DHT22;26542;50.836;5.356;2023-04-01T11:37:23;11.50;99.90
40822;DHT22;26542;50.836;5.356;2023-04-01T11:46:06;11.50;99.90
40822;DHT22;26542;50.836;5.356;2023-04-01T11:49:28;11.50;99.90
40822;DHT22;26542;50.836;5.356;2023-04-01T12:03:02;11.30;99.90
40822;DHT22;26542;50.836;5.356;2023-04-01T12:05:43;11.30;99.90
40822;DHT22;26542;50.836;5.356;2023-04-01T12:08:31;11.30;99.90
40822;DHT22;26542;50.836;5.356;2023-04-01T12:11:17;11.40;99.90
40822;DHT22;26542;50.836;5.356;2023-04-01T12:14:16;11.50;99.90
40822;DHT22;26542;50.836;5.356;2023-04-01T12:16:49;11.50;99.90
40822;DHT22;26542;50.836;5.356;2023-04-01T12:28:25;11.90;99.90
40822;DHT22;26542;50.836;5.356;2023-04-01T12:39:51;11.80;99.90
40822;DHT22;26542;50.836;5.356;2023-04-01T12:45:30;11.50;99.90
40822;DHT22;26542;50.836;5.356;2023-04-01T12:59:42;11.80;99.90
40822;DHT22;26542;50.836;5.356;2023-04-01T13:07:53;11.90;99.90
40822;DHT22;26542;50.836;5.356;2023-04-01T13:10:42;11.80;99.90
40822;DHT22;26542;50.836;5.356;2023-04-01T13:16:14;11.80;99.90
40822;DHT22;26542;50.836;5.356;2023-04-01T13:19:01;11.80;99.90
40822;DHT22;26542;50.836;5.356;2023-04-01T13:21:33;11.80;99.90
40822;DHT22;26542;50.836;5.356;2023-04-01T13:24:08;11.80;99.90
40822;DHT22;26542;50.836;5.356;2023-04-01T13:29:36;11.50;99.90
40822;DHT22;26542;50.836;5.356;2023-04-01T13:37:38;11.20;99.90
40822;DHT22;26542;50.836;5.356;2023-04-01T13:40:33;11.10;99.90
40822;DHT22;26542;50.836;5.356;2023-04-01T13:43:41;11.30;99.90
40822;DHT22;26542;50.836;5.356;2023-04-01T13:46:40;11.30;99.90
40822;DHT22;26542;50.836;5.356;2023-04-01T13:52:32;11.10;99.90
40822;DHT22;26542;50.836;5.356;2023-04-01T14:06:49;11.20;99.90
40822;DHT22;26542;50.836;5.356;2023-04-01T14:12:15;11.20;99.90
40822;DHT22;26542;50.836;5.356;2023-04-01T14:29:06;10.90;99.90
40822;DHT22;26542;50.836;5.356;2023-04-01T14:37:31;10.90;99.90
40822;DHT22;26542;50.836;5.356;2023-04-01T14:40:05;10.90;99.90
40822;DHT22;26542;50.836;5.356;2023-04-01T14:48:37;10.70;99.90
40822;DHT22;26542;50.836;5.356;2023-04-01T14:51:38;10.70;99.90
40822;DHT22;26542;50.836;5.356;2023-04-01T14:56:43;10.70;99.90
40822;DHT22;26542;50.836;5.356;2023-04-01T14:59:27;10.70;99.90
40822;DHT22;26542;50.836;5.356;2023-04-01T15:10:43;10.70;99.90
40822;DHT22;26542;50.836;5.356;2023-04-01T15:13:25;10.70;99.90
40822;DHT22;26542;50.836;5.356;2023-04-01T15:27:50;11.20;99.90
40822;DHT22;26542;50.836;5.356;2023-04-01T15:30:44;11.20;99.90
40822;DHT22;26542;50.836;5.356;2023-04-01T15:36:06;11.10;99.90
40822;DHT22;26542;50.836;5.356;2023-04-01T15:38:48;11.10;99.90
40822;DHT22;26542;50.836;5.356;2023-04-01T15:41:16;11.20;99.90
40822;DHT22;26542;50.836;5.356;2023-04-01T15:43:49;11.20;99.90
40822;DHT22;26542;50.836;5.356;2023-04-01T15:51:37;11.00;99.90
40822;DHT22;26542;50.836;5.356;2023-04-01T16:05:37;11.00;99.90
40822;DHT22;26542;50.836;5.356;2023-04-01T16:11:32;11.10;99.90
40822;DHT22;26542;50.836;5.356;2023-04-01T16:14:07;11.00;99.90
40822;DHT22;26542;50.836;5.356;2023-04-01T16:16:54;11.10;99.90
40822;DHT22;26542;50.836;5.356;2023-04-01T16:19:31;11.00;99.90
40822;DHT22;26542;50.836;5.356;2023-04-01T16:22:05;11.00;99.90
40822;DHT22;26542;50.836;5.356;2023-04-01T16:30:00;11.30;99.90
40822;DHT22;26542;50.836;5.356;2023-04-01T16:35:34;11.10;99.90
40822;DHT22;26542;50.836;5.356;2023-04-01T16:38:36;11.20;99.90
40822;DHT22;26542;50.836;5.356;2023-04-01T16:41:19;11.20;99.90
40822;DHT22;26542;50.836;5.356;2023-04-01T16:44:16;11.10;99.90
40822;DHT22;26542;50.836;5.356;2023-04-01T16:46:45;11.10;99.90
40822;DHT22;26542;50.836;5.356;2023-04-01T16:54:56;11.10;99.90
40822;DHT22;26542;50.836;5.356;2023-04-01T16:57:35;11.10;99.90
40822;DHT22;26542;50.836;5.356;2023-04-01T17:02:38;11.10;99.90
40822;DHT22;26542;50.836;5.356;2023-04-01T17:05:12;11.10;99.90
40822;DHT22;26542;50.836;5.356;2023-04-01T17:24:36;10.50;99.90
40822;DHT22;26542;50.836;5.356;2023-04-01T17:27:28;10.40;99.90
40822;DHT22;26542;50.836;5.356;2023-04-01T17:33:29;10.20;99.90
40822;DHT22;26542;50.836;5.356;2023-04-01T17:35:43;10.20;99.90
40822;DHT22;26542;50.836;5.356;2023-04-01T17:52:03;10.00;99.90
40822;DHT22;26542;50.836;5.356;2023-04-01T17:54:50;9.90;99.90
40822;DHT22;26542;50.836;5.356;2023-04-01T18:03:08;10.00;99.90
40822;DHT22;26542;50.836;5.356;2023-04-01T18:05:45;9.90;99.90
40822;DHT22;26542;50.836;5.356;2023-04-01T18:08:38;9.90;99.90
40822;DHT22;26542;50.836;5.356;2023-04-01T18:11:39;10.00;99.90
40822;DHT22;26542;50.836;5.356;2023-04-01T18:25:20;9.90;99.90
40822;DHT22;26542;50.836;5.356;2023-04-01T18:30:36;9.80;99.90
40822;DHT22;26542;50.836;5.356;2023-04-01T18:39:13;9.70;99.90
40822;DHT22;26542;50.836;5.356;2023-04-01T18:41:49;9.80;99.90
40822;DHT22;26542;50.836;5.356;2023-04-01T18:45:17;9.90;99.90
40822;DHT22;26542;50.836;5.356;2023-04-01T18:47:38;9.90;99.90
40822;DHT22;26542;50.836;5.356;2023-04-01T18:50:18;9.90;99.90
40822;DHT22;26542;50.836;5.356;2023-04-01T18:52:50;9.90;99.90
40822;DHT22;26542;50.836;5.356;2023-04-01T18:55:51;9.90;99.90
40822;DHT22;26542;50.836;5.356;2023-04-01T19:03:46;10.00;99.90
40822;DHT22;26542;50.836;5.356;2023-04-01T19:25:52;10.10;99.90
40822;DHT22;26542;50.836;5.356;2023-04-01T19:28:39;10.00;99.90
40822;DHT22;26542;50.836;5.356;2023-04-01T19:33:41;9.90;99.90
40822;DHT22;26542;50.836;5.356;2023-04-01T19:38:54;10.00;99.90
40822;DHT22;26542;50.836;5.356;2023-04-01T19:46:44;10.10;99.90
40822;DHT22;26542;50.836;5.356;2023-04-01T19:52:29;10.00;99.90
40822;DHT22;26542;50.836;5.356;2023-04-01T20:00:59;10.00;99.90
40822;DHT22;26542;50.836;5.356;2023-04-01T20:03:34;10.00;99.90
40822;DHT22;26542;50.836;5.356;2023-04-01T20:06:31;10.00;99.90
40822;DHT22;26542;50.836;5.356;2023-04-01T20:11:57;10.00;99.90
40822;DHT22;26542;50.836;5.356;2023-04-01T20:14:36;10.10;99.90
40822;DHT22;26542;50.836;5.356;2023-04-01T20:17:31;10.00;99.90
40822;DHT22;26542;50.836;5.356;2023-04-01T20:34:14;10.20;99.90
40822;DHT22;26542;50.836;5.356;2023-04-01T20:37:00;10.20;99.90
40822;DHT22;26542;50.836;5.356;2023-04-01T20:42:32;10.40;99.90
40822;DHT22;26542;50.836;5.356;2023-04-01T20:51:03;10.30;99.90
40822;DHT22;26542;50.836;5.356;2023-04-01T20:54:10;10.20;99.90
40822;DHT22;26542;50.836;5.356;2023-04-01T21:07:47;10.40;99.90
40822;DHT22;26542;50.836;5.356;2023-04-01T21:10:36;10.50;99.90
40822;DHT22;26542;50.836;5.356;2023-04-01T21:13:16;10.50;99.90
40822;DHT22;26542;50.836;5.356;2023-04-01T21:25:27;10.70;99.90
40822;DHT22;26542;50.836;5.356;2023-04-01T21:28:12;10.80;99.90
40822;DHT22;26542;50.836;5.356;2023-04-01T21:31:02;10.90;99.90
40822;DHT22;26542;50.836;5.356;2023-04-01T21:58:25;11.20;99.90
40822;DHT22;26542;50.836;5.356;2023-04-01T22:06:40;11.00;99.90
40822;DHT22;26542;50.836;5.356;2023-04-01T22:12:04;10.80;99.90
40822;DHT22;26542;50.836;5.356;2023-04-01T22:31:08;10.90;99.90
40822;DHT22;26542;50.836;5.356;2023-04-01T22:33:42;10.80;99.90
40822;DHT22;26542;50.836;5.356;2023-04-01T22:44:41;10.60;99.90
40822;DHT22;26542;50.836;5.356;2023-04-01T22:47:35;10.60;99.90
40822;DHT22;26542;50.836;5.356;2023-04-01T22:50:15;10.50;99.90
40822;DHT22;26542;50.836;5.356;2023-04-01T22:52:47;10.50;99.90
40822;DHT22;26542;50.836;5.356;2023-04-01T22:55:40;10.40;99.90
40822;DHT22;26542;50.836;5.356;2023-04-01T22:58:12;10.50;99.90
40822;DHT22;26542;50.836;5.356;2023-04-01T23:03:19;10.60;99.90
40822;DHT22;26542;50.836;5.356;2023-04-01T23:05:50;10.50;99.90
40822;DHT22;26542;50.836;5.356;2023-04-01T23:08:48;10.60;99.90
40822;DHT22;26542;50.836;5.356;2023-04-01T23:11:30;10.50;99.90
40822;DHT22;26542;50.836;5.356;2023-04-01T23:17:09;10.60;99.90
40822;DHT22;26542;50.836;5.356;2023-04-01T23:25:15;10.40;99.90
40822;DHT22;26542;50.836;5.356;2023-04-01T23:38:38;10.10;99.90
40822;DHT22;26542;50.836;5.356;2023-04-01T23:41:05;10.00;99.90
40822;DHT22;26542;50.836;5.356;2023-04-01T23:43:37;10.00;99.90
40822;DHT22;26542;50.836;5.356;2023-04-01T23:46:06;10.00;99.90
40822;DHT22;26542;50.836;5.356;2023-04-01T23:48:41;10.00;99.90
40822;DHT22;26542;50.836;5.356;2023-04-01T23:51:26;9.90;99.90
40822;DHT22;26542;50.836;5.356;2023-04-01T23:54:04;9.90;99.90
40822;DHT22;26542;50.836;5.356;2023-04-01T23:56:42;9.90;99.90
40822;DHT22;26542;50.836;5.356;2023-04-01T23:59:29;9.90;99.90
